LIMF/TRN METAR and TAF weather

Enter ICAO airport designator
Station Type Date Time Source
LIMF METAR 2023/11/30 23:20 UTC NOAA

LIMF 302320Z VRB01KT 4000 BR NSC 01/01 Q1002


Station Type Date Time Source
LIMF Decoded METAR 2023/11/30 23:20 UTC NOAA

Torino / Caselle, Italy (LIMF) 45-13N 007-39E 287M
Nov 30, 2023 - 06:20 PM EST / 2023.11.30 2320 UTC
Wind: Variable at 1 MPH (1 KT):0
Visibility: 2 mile(s):0
Weather: mist
Temperature: 33 F (1 C)
Dew Point: 33 F (1 C)
Relative Humidity: 100%
Pressure (altimeter): 29.59 in. Hg (1002 hPa)
ob: LIMF 302320Z VRB01KT 4000 BR NSC 01/01 Q1002
cycle: 23

Station Type Date Time Source
LIMF TAF 2023/11/30 18:21 UTC NOAA

TAF LIMF 301700Z 3018/0118 VRB04KT 6000 SCT050
TEMPO 3018/0108 2000 BR
TEMPO 0116/0118 3000 -RA

Example: see airport list